aviador You're here:

KTGI Decoded Metar

in
Report Time2018-06-19 07:55:00
UTC Time2018-06-19 08:10:39
Flight Rules vfr VFR
Wind220° at 09 kt
W.Decomp.*RWY 20: 8.5 kt HW 3.1 kt RCW
W.Rank220° ranks 15
Current wind is below 220° avg. (9.9)
Visibility9999 m
Phenomena:N/A
Clouds:N/A
CeilingNone
Temp26°C
Dew Point26°C (100% RH)
QNH1010 hPa
Raw Report
METAR KTGI 190755Z AUTO 22009KT 10SM CLR 26/26 A2984 RMK AO1=

Extra information for KTGI:More info

Social comments